sensor_id;sensor_type;location;lat;lon;timestamp;temperature;humidity
26081;DHT22;13991;51.174;4.438;2022-10-31T08:37:24;14.50;99.90
26081;DHT22;13991;51.174;4.438;2022-10-31T09:06:49;15.20;99.90
26081;DHT22;13991;51.174;4.438;2022-10-31T09:09:15;15.10;99.90
26081;DHT22;13991;51.174;4.438;2022-10-31T09:11:40;15.10;99.90
26081;DHT22;13991;51.174;4.438;2022-10-31T09:14:06;15.20;99.90
26081;DHT22;13991;51.174;4.438;2022-10-31T09:16:32;15.30;99.90
26081;DHT22;13991;51.174;4.438;2022-10-31T09:18:58;15.30;99.90
26081;DHT22;13991;51.174;4.438;2022-10-31T09:21:23;15.30;99.90
26081;DHT22;13991;51.174;4.438;2022-10-31T09:23:49;15.40;99.90
26081;DHT22;13991;51.174;4.438;2022-10-31T09:26:15;15.30;99.90
26081;DHT22;13991;51.174;4.438;2022-10-31T09:28:41;15.40;99.90
26081;DHT22;13991;51.174;4.438;2022-10-31T09:31:06;15.40;99.90
26081;DHT22;13991;51.174;4.438;2022-10-31T09:33:32;15.40;99.90
26081;DHT22;13991;51.174;4.438;2022-10-31T09:35:58;15.40;99.90
26081;DHT22;13991;51.174;4.438;2022-10-31T09:38:24;15.40;99.90
26081;DHT22;13991;51.174;4.438;2022-10-31T09:41:07;15.40;99.90
26081;DHT22;13991;51.174;4.438;2022-10-31T09:43:49;15.40;99.90
26081;DHT22;13991;51.174;4.438;2022-10-31T09:46:39;15.40;99.90
26081;DHT22;13991;51.174;4.438;2022-10-31T09:49:18;15.40;99.90
26081;DHT22;13991;51.174;4.438;2022-10-31T09:51:56;15.50;99.90
26081;DHT22;13991;51.174;4.438;2022-10-31T09:57:24;15.60;99.90
26081;DHT22;13991;51.174;4.438;2022-10-31T09:59:51;15.60;99.90
26081;DHT22;13991;51.174;4.438;2022-10-31T10:02:32;15.60;99.90
26081;DHT22;13991;51.174;4.438;2022-10-31T10:05:03;15.60;99.90
26081;DHT22;13991;51.174;4.438;2022-10-31T10:13:35;15.70;99.90
26081;DHT22;13991;51.174;4.438;2022-10-31T10:24:27;15.90;99.90
26081;DHT22;13991;51.174;4.438;2022-10-31T10:27:09;16.00;99.90
26081;DHT22;13991;51.174;4.438;2022-10-31T10:32:31;16.20;99.90
26081;DHT22;13991;51.174;4.438;2022-10-31T10:35:30;16.10;99.90
26081;DHT22;13991;51.174;4.438;2022-10-31T10:38:09;16.20;99.90
26081;DHT22;13991;51.174;4.438;2022-10-31T10:40:37;16.30;99.90
26081;DHT22;13991;51.174;4.438;2022-10-31T10:43:22;16.40;99.90
26081;DHT22;13991;51.174;4.438;2022-10-31T10:45:56;16.40;99.90
26081;DHT22;13991;51.174;4.438;2022-10-31T10:49:03;16.40;99.90
26081;DHT22;13991;51.174;4.438;2022-10-31T10:54:46;16.50;99.90
26081;DHT22;13991;51.174;4.438;2022-10-31T11:00:02;16.60;99.90
26081;DHT22;13991;51.174;4.438;2022-10-31T11:02:31;16.60;99.90
26081;DHT22;13991;51.174;4.438;2022-10-31T11:04:58;16.70;99.90
26081;DHT22;13991;51.174;4.438;2022-10-31T11:07:25;16.80;99.90
26081;DHT22;13991;51.174;4.438;2022-10-31T11:10:04;16.80;99.90
26081;DHT22;13991;51.174;4.438;2022-10-31T11:12:32;16.90;99.90
26081;DHT22;13991;51.174;4.438;2022-10-31T11:15:07;16.90;99.90
26081;DHT22;13991;51.174;4.438;2022-10-31T11:17:39;16.90;99.90
26081;DHT22;13991;51.174;4.438;2022-10-31T11:22:37;17.00;99.90
26081;DHT22;13991;51.174;4.438;2022-10-31T11:27:44;17.00;99.90
26081;DHT22;13991;51.174;4.438;2022-10-31T11:30:13;17.00;99.90
26081;DHT22;13991;51.174;4.438;2022-10-31T11:32:46;17.00;99.90
26081;DHT22;13991;51.174;4.438;2022-10-31T11:35:16;17.00;99.90
26081;DHT22;13991;51.174;4.438;2022-10-31T11:37:44;17.00;99.90
26081;DHT22;13991;51.174;4.438;2022-10-31T11:40:16;17.00;99.90
26081;DHT22;13991;51.174;4.438;2022-10-31T11:42:43;17.10;99.90
26081;DHT22;13991;51.174;4.438;2022-10-31T11:45:38;17.00;99.90
26081;DHT22;13991;51.174;4.438;2022-10-31T11:48:18;17.00;99.90
26081;DHT22;13991;51.174;4.438;2022-10-31T11:50:51;16.90;99.90
26081;DHT22;13991;51.174;4.438;2022-10-31T11:53:28;17.00;99.90
26081;DHT22;13991;51.174;4.438;2022-10-31T11:56:24;17.00;99.90
26081;DHT22;13991;51.174;4.438;2022-10-31T11:59:17;17.20;99.90
26081;DHT22;13991;51.174;4.438;2022-10-31T12:01:51;17.30;99.90
26081;DHT22;13991;51.174;4.438;2022-10-31T12:04:18;17.40;99.90
26081;DHT22;13991;51.174;4.438;2022-10-31T12:06:49;17.50;99.90
26081;DHT22;13991;51.174;4.438;2022-10-31T12:09:30;17.60;99.90
26081;DHT22;13991;51.174;4.438;2022-10-31T12:28:41;18.10;99.90
26081;DHT22;13991;51.174;4.438;2022-10-31T12:37:13;18.10;99.90
26081;DHT22;13991;51.174;4.438;2022-10-31T12:39:59;18.10;99.90
26081;DHT22;13991;51.174;4.438;2022-10-31T12:45:45;18.00;99.90
26081;DHT22;13991;51.174;4.438;2022-10-31T13:01:51;18.40;99.90
26081;DHT22;13991;51.174;4.438;2022-10-31T13:07:58;18.50;99.90
26081;DHT22;13991;51.174;4.438;2022-10-31T13:10:48;18.50;99.90
26081;DHT22;13991;51.174;4.438;2022-10-31T13:13:19;18.60;99.90
26081;DHT22;13991;51.174;4.438;2022-10-31T13:15:59;18.70;99.90
26081;DHT22;13991;51.174;4.438;2022-10-31T13:18:38;18.80;99.90
26081;DHT22;13991;51.174;4.438;2022-10-31T13:21:17;18.80;99.90
26081;DHT22;13991;51.174;4.438;2022-10-31T13:23:45;18.90;99.90
26081;DHT22;13991;51.174;4.438;2022-10-31T13:27:00;18.90;99.90
26081;DHT22;13991;51.174;4.438;2022-10-31T13:31:31;19.00;99.90
26081;DHT22;13991;51.174;4.438;2022-10-31T13:34:02;19.10;99.90
26081;DHT22;13991;51.174;4.438;2022-10-31T13:36:53;19.20;99.90
26081;DHT22;13991;51.174;4.438;2022-10-31T13:42:35;19.60;99.90
26081;DHT22;13991;51.174;4.438;2022-10-31T13:45:16;19.70;99.90
26081;DHT22;13991;51.174;4.438;2022-10-31T13:47:43;19.80;99.90
26081;DHT22;13991;51.174;4.438;2022-10-31T13:52:45;19.60;99.90
26081;DHT22;13991;51.174;4.438;2022-10-31T13:58:27;19.60;99.90
26081;DHT22;13991;51.174;4.438;2022-10-31T14:03:37;19.70;99.90
26081;DHT22;13991;51.174;4.438;2022-10-31T14:06:05;19.70;99.90
26081;DHT22;13991;51.174;4.438;2022-10-31T14:08:34;19.60;99.90
26081;DHT22;13991;51.174;4.438;2022-10-31T14:11:01;19.60;99.90
26081;DHT22;13991;51.174;4.438;2022-10-31T14:16:20;19.60;99.90
26081;DHT22;13991;51.174;4.438;2022-10-31T14:19:06;19.50;99.90
26081;DHT22;13991;51.174;4.438;2022-10-31T14:21:46;19.50;99.90
26081;DHT22;13991;51.174;4.438;2022-10-31T14:24:33;19.40;99.90
26081;DHT22;13991;51.174;4.438;2022-10-31T14:29:46;19.40;99.90
26081;DHT22;13991;51.174;4.438;2022-10-31T14:50:45;19.30;99.90
26081;DHT22;13991;51.174;4.438;2022-10-31T14:53:36;19.30;99.90
26081;DHT22;13991;51.174;4.438;2022-10-31T14:56:02;19.30;99.90
26081;DHT22;13991;51.174;4.438;2022-10-31T14:58:41;19.30;99.90
26081;DHT22;13991;51.174;4.438;2022-10-31T15:01:29;19.30;99.90
26081;DHT22;13991;51.174;4.438;2022-10-31T15:04:17;19.30;99.90
26081;DHT22;13991;51.174;4.438;2022-10-31T15:06:47;19.10;99.90
26081;DHT22;13991;51.174;4.438;2022-10-31T15:09:25;19.20;99.90
26081;DHT22;13991;51.174;4.438;2022-10-31T15:11:51;19.20;99.90
26081;DHT22;13991;51.174;4.438;2022-10-31T15:14:35;19.20;99.90
26081;DHT22;13991;51.174;4.438;2022-10-31T15:17:02;19.10;99.90
26081;DHT22;13991;51.174;4.438;2022-10-31T15:19:30;19.10;99.90
26081;DHT22;13991;51.174;4.438;2022-10-31T15:21:58;19.00;99.90
26081;DHT22;13991;51.174;4.438;2022-10-31T15:24:32;19.10;99.90
26081;DHT22;13991;51.174;4.438;2022-10-31T15:26:59;19.00;99.90
26081;DHT22;13991;51.174;4.438;2022-10-31T15:29:26;19.00;99.90
26081;DHT22;13991;51.174;4.438;2022-10-31T15:31:57;19.00;99.90
26081;DHT22;13991;51.174;4.438;2022-10-31T15:34:37;19.00;99.90
26081;DHT22;13991;51.174;4.438;2022-10-31T15:37:04;19.00;99.90
26081;DHT22;13991;51.174;4.438;2022-10-31T15:39:31;18.90;99.90
26081;DHT22;13991;51.174;4.438;2022-10-31T15:41:58;18.90;99.90
26081;DHT22;13991;51.174;4.438;2022-10-31T15:44:36;18.90;99.90
26081;DHT22;13991;51.174;4.438;2022-10-31T15:47:17;18.90;99.90
26081;DHT22;13991;51.174;4.438;2022-10-31T15:49:54;18.80;99.90
26081;DHT22;13991;51.174;4.438;2022-10-31T15:52:26;18.80;99.90
26081;DHT22;13991;51.174;4.438;2022-10-31T15:55:44;18.80;99.90
26081;DHT22;13991;51.174;4.438;2022-10-31T15:57:52;18.70;99.90
26081;DHT22;13991;51.174;4.438;2022-10-31T16:03:06;18.50;99.90
26081;DHT22;13991;51.174;4.438;2022-10-31T16:05:58;18.40;99.90
26081;DHT22;13991;51.174;4.438;2022-10-31T16:11:33;18.40;99.90
26081;DHT22;13991;51.174;4.438;2022-10-31T16:16:47;18.40;99.90
26081;DHT22;13991;51.174;4.438;2022-10-31T16:19:35;18.20;99.90
26081;DHT22;13991;51.174;4.438;2022-10-31T16:22:13;18.20;99.90
26081;DHT22;13991;51.174;4.438;2022-10-31T16:24:54;18.10;99.90
26081;DHT22;13991;51.174;4.438;2022-10-31T16:27:32;18.00;99.90
26081;DHT22;13991;51.174;4.438;2022-10-31T16:30:00;18.00;99.90
26081;DHT22;13991;51.174;4.438;2022-10-31T16:32:52;17.90;99.90
26081;DHT22;13991;51.174;4.438;2022-10-31T16:35:34;17.90;99.90
26081;DHT22;13991;51.174;4.438;2022-10-31T16:38:01;17.90;99.90
26081;DHT22;13991;51.174;4.438;2022-10-31T16:40:27;17.90;99.90
26081;DHT22;13991;51.174;4.438;2022-10-31T16:42:57;17.80;99.90
26081;DHT22;13991;51.174;4.438;2022-10-31T16:55:44;17.60;99.90
26081;DHT22;13991;51.174;4.438;2022-10-31T16:58:17;17.50;99.90
26081;DHT22;13991;51.174;4.438;2022-10-31T17:00:43;17.50;99.90
26081;DHT22;13991;51.174;4.438;2022-10-31T17:03:09;17.40;99.90
26081;DHT22;13991;51.174;4.438;2022-10-31T17:05:35;17.50;99.90
26081;DHT22;13991;51.174;4.438;2022-10-31T17:08:02;17.50;99.90
26081;DHT22;13991;51.174;4.438;2022-10-31T17:10:28;17.50;99.90
26081;DHT22;13991;51.174;4.438;2022-10-31T17:12:54;17.40;99.90
26081;DHT22;13991;51.174;4.438;2022-10-31T17:15:26;17.40;99.90
26081;DHT22;13991;51.174;4.438;2022-10-31T17:17:53;17.40;99.90
26081;DHT22;13991;51.174;4.438;2022-10-31T17:20:25;17.40;99.90
26081;DHT22;13991;51.174;4.438;2022-10-31T17:22:52;17.30;99.90
26081;DHT22;13991;51.174;4.438;2022-10-31T17:25:23;17.30;99.90
26081;DHT22;13991;51.174;4.438;2022-10-31T17:27:50;17.30;99.90
26081;DHT22;13991;51.174;4.438;2022-10-31T17:30:17;17.30;99.90
26081;DHT22;13991;51.174;4.438;2022-10-31T17:32:44;17.10;99.90
26081;DHT22;13991;51.174;4.438;2022-10-31T17:35:11;17.10;99.90
26081;DHT22;13991;51.174;4.438;2022-10-31T17:37:38;17.10;99.90
26081;DHT22;13991;51.174;4.438;2022-10-31T17:40:04;17.10;99.90
26081;DHT22;13991;51.174;4.438;2022-10-31T17:42:30;17.10;99.90
26081;DHT22;13991;51.174;4.438;2022-10-31T17:44:56;17.10;99.90
26081;DHT22;13991;51.174;4.438;2022-10-31T17:47:21;17.10;99.90
26081;DHT22;13991;51.174;4.438;2022-10-31T17:49:47;17.10;99.90
26081;DHT22;13991;51.174;4.438;2022-10-31T17:52:13;17.10;99.90
26081;DHT22;13991;51.174;4.438;2022-10-31T17:54:39;17.00;99.90
26081;DHT22;13991;51.174;4.438;2022-10-31T17:57:05;17.00;99.90
26081;DHT22;13991;51.174;4.438;2022-10-31T17:59:31;17.00;99.90
26081;DHT22;13991;51.174;4.438;2022-10-31T18:01:57;17.00;99.90
26081;DHT22;13991;51.174;4.438;2022-10-31T18:04:24;17.00;99.90
26081;DHT22;13991;51.174;4.438;2022-10-31T18:06:50;16.90;99.90
26081;DHT22;13991;51.174;4.438;2022-10-31T18:09:16;16.90;99.90
26081;DHT22;13991;51.174;4.438;2022-10-31T18:11:42;16.90;99.90
26081;DHT22;13991;51.174;4.438;2022-10-31T18:14:09;16.90;99.90
26081;DHT22;13991;51.174;4.438;2022-10-31T18:16:35;17.00;99.90
26081;DHT22;13991;51.174;4.438;2022-10-31T18:19:00;17.00;99.90
26081;DHT22;13991;51.174;4.438;2022-10-31T18:21:30;17.00;99.90
26081;DHT22;13991;51.174;4.438;2022-10-31T18:23:57;17.00;99.90
26081;DHT22;13991;51.174;4.438;2022-10-31T18:26:24;17.10;99.90
26081;DHT22;13991;51.174;4.438;2022-10-31T18:28:50;17.00;99.90
26081;DHT22;13991;51.174;4.438;2022-10-31T18:31:16;17.20;99.90
26081;DHT22;13991;51.174;4.438;2022-10-31T18:33:42;17.10;99.90
26081;DHT22;13991;51.174;4.438;2022-10-31T18:36:08;17.10;99.90
26081;DHT22;13991;51.174;4.438;2022-10-31T18:38:39;17.00;99.90
26081;DHT22;13991;51.174;4.438;2022-10-31T18:41:06;17.10;99.90
26081;DHT22;13991;51.174;4.438;2022-10-31T18:43:32;17.00;99.90
26081;DHT22;13991;51.174;4.438;2022-10-31T18:46:06;17.00;99.90
26081;DHT22;13991;51.174;4.438;2022-10-31T18:48:33;17.00;99.90
26081;DHT22;13991;51.174;4.438;2022-10-31T18:51:07;17.00;99.90
26081;DHT22;13991;51.174;4.438;2022-10-31T18:53:34;17.00;99.90
26081;DHT22;13991;51.174;4.438;2022-10-31T18:56:00;17.00;99.90
26081;DHT22;13991;51.174;4.438;2022-10-31T18:58:26;17.00;99.90
26081;DHT22;13991;51.174;4.438;2022-10-31T19:00:53;16.90;99.90
26081;DHT22;13991;51.174;4.438;2022-10-31T19:03:19;17.00;99.90
26081;DHT22;13991;51.174;4.438;2022-10-31T19:05:45;16.90;99.90
26081;DHT22;13991;51.174;4.438;2022-10-31T19:08:10;16.90;99.90
26081;DHT22;13991;51.174;4.438;2022-10-31T19:10:37;16.90;99.90
26081;DHT22;13991;51.174;4.438;2022-10-31T19:13:03;16.80;99.90
26081;DHT22;13991;51.174;4.438;2022-10-31T19:15:29;16.90;99.90
26081;DHT22;13991;51.174;4.438;2022-10-31T19:17:55;17.00;99.90
26081;DHT22;13991;51.174;4.438;2022-10-31T19:20:22;17.00;99.90
26081;DHT22;13991;51.174;4.438;2022-10-31T19:22:47;16.90;99.90
26081;DHT22;13991;51.174;4.438;2022-10-31T19:25:13;16.80;99.90
26081;DHT22;13991;51.174;4.438;2022-10-31T19:27:39;16.70;99.90
26081;DHT22;13991;51.174;4.438;2022-10-31T19:30:06;16.80;99.90
26081;DHT22;13991;51.174;4.438;2022-10-31T19:32:31;16.70;99.90
26081;DHT22;13991;51.174;4.438;2022-10-31T19:34:57;16.80;99.90
26081;DHT22;13991;51.174;4.438;2022-10-31T19:37:23;16.80;99.90
26081;DHT22;13991;51.174;4.438;2022-10-31T19:39:49;16.80;99.90
26081;DHT22;13991;51.174;4.438;2022-10-31T19:42:15;16.70;99.90
26081;DHT22;13991;51.174;4.438;2022-10-31T19:44:40;16.80;99.90
26081;DHT22;13991;51.174;4.438;2022-10-31T19:47:06;16.80;99.90
26081;DHT22;13991;51.174;4.438;2022-10-31T19:49:32;16.70;99.90
26081;DHT22;13991;51.174;4.438;2022-10-31T19:51:58;16.70;99.90
26081;DHT22;13991;51.174;4.438;2022-10-31T19:54:23;16.70;99.90
26081;DHT22;13991;51.174;4.438;2022-10-31T19:56:49;16.70;99.90
26081;DHT22;13991;51.174;4.438;2022-10-31T19:59:15;16.70;99.90
26081;DHT22;13991;51.174;4.438;2022-10-31T20:01:40;16.70;99.90
26081;DHT22;13991;51.174;4.438;2022-10-31T20:04:06;16.70;99.90
26081;DHT22;13991;51.174;4.438;2022-10-31T20:06:34;16.70;99.90
26081;DHT22;13991;51.174;4.438;2022-10-31T20:09:03;16.70;99.90
26081;DHT22;13991;51.174;4.438;2022-10-31T20:11:28;16.60;99.90
26081;DHT22;13991;51.174;4.438;2022-10-31T20:13:56;16.60;99.90
26081;DHT22;13991;51.174;4.438;2022-10-31T20:16:22;16.60;99.90
26081;DHT22;13991;51.174;4.438;2022-10-31T20:18:48;16.60;99.90
26081;DHT22;13991;51.174;4.438;2022-10-31T20:21:16;16.50;99.90
26081;DHT22;13991;51.174;4.438;2022-10-31T20:23:42;16.50;99.90
26081;DHT22;13991;51.174;4.438;2022-10-31T20:26:11;16.60;99.90
26081;DHT22;13991;51.174;4.438;2022-10-31T20:28:36;16.60;99.90
26081;DHT22;13991;51.174;4.438;2022-10-31T20:31:07;16.60;99.90
26081;DHT22;13991;51.174;4.438;2022-10-31T20:33:33;16.70;99.90
26081;DHT22;13991;51.174;4.438;2022-10-31T20:36:03;16.70;99.90
26081;DHT22;13991;51.174;4.438;2022-10-31T20:38:29;17.00;99.90
26081;DHT22;13991;51.174;4.438;2022-10-31T20:41:05;16.90;99.90
26081;DHT22;13991;51.174;4.438;2022-10-31T20:43:32;16.80;99.90
26081;DHT22;13991;51.174;4.438;2022-10-31T20:46:03;16.80;99.90
26081;DHT22;13991;51.174;4.438;2022-10-31T20:48:30;16.80;99.90
26081;DHT22;13991;51.174;4.438;2022-10-31T20:51:01;16.80;99.90
26081;DHT22;13991;51.174;4.438;2022-10-31T20:53:27;16.90;99.90
26081;DHT22;13991;51.174;4.438;2022-10-31T20:56:09;16.90;99.90
26081;DHT22;13991;51.174;4.438;2022-10-31T20:58:37;16.90;99.90
26081;DHT22;13991;51.174;4.438;2022-10-31T21:01:04;16.80;99.90
26081;DHT22;13991;51.174;4.438;2022-10-31T21:03:30;16.80;99.90
26081;DHT22;13991;51.174;4.438;2022-10-31T21:05:59;16.90;99.90
26081;DHT22;13991;51.174;4.438;2022-10-31T21:08:28;16.90;99.90
26081;DHT22;13991;51.174;4.438;2022-10-31T21:10:54;16.90;99.90
26081;DHT22;13991;51.174;4.438;2022-10-31T21:13:20;17.00;99.90
26081;DHT22;13991;51.174;4.438;2022-10-31T21:15:47;17.00;99.90
26081;DHT22;13991;51.174;4.438;2022-10-31T21:18:13;16.90;99.90
26081;DHT22;13991;51.174;4.438;2022-10-31T21:20:43;17.00;99.90
26081;DHT22;13991;51.174;4.438;2022-10-31T21:23:12;17.00;99.90
26081;DHT22;13991;51.174;4.438;2022-10-31T21:25:39;17.00;99.90
26081;DHT22;13991;51.174;4.438;2022-10-31T21:28:06;17.00;99.90
26081;DHT22;13991;51.174;4.438;2022-10-31T21:30:33;17.00;99.90
26081;DHT22;13991;51.174;4.438;2022-10-31T21:32:58;16.90;99.90
26081;DHT22;13991;51.174;4.438;2022-10-31T21:35:24;17.00;99.90
26081;DHT22;13991;51.174;4.438;2022-10-31T21:37:50;17.00;99.90
26081;DHT22;13991;51.174;4.438;2022-10-31T21:40:15;17.00;99.90
26081;DHT22;13991;51.174;4.438;2022-10-31T21:42:41;16.90;99.90
26081;DHT22;13991;51.174;4.438;2022-10-31T21:45:07;16.90;99.90
26081;DHT22;13991;51.174;4.438;2022-10-31T21:47:33;17.00;99.90
26081;DHT22;13991;51.174;4.438;2022-10-31T21:49:59;17.00;99.90
26081;DHT22;13991;51.174;4.438;2022-10-31T21:52:25;17.00;99.90
26081;DHT22;13991;51.174;4.438;2022-10-31T21:54:51;17.00;99.90
26081;DHT22;13991;51.174;4.438;2022-10-31T21:57:16;17.00;99.90
26081;DHT22;13991;51.174;4.438;2022-10-31T21:59:42;17.00;99.90
26081;DHT22;13991;51.174;4.438;2022-10-31T22:02:13;17.00;99.90
26081;DHT22;13991;51.174;4.438;2022-10-31T22:04:39;17.10;99.90
26081;DHT22;13991;51.174;4.438;2022-10-31T22:07:08;17.00;99.90
26081;DHT22;13991;51.174;4.438;2022-10-31T22:09:34;17.00;99.90
26081;DHT22;13991;51.174;4.438;2022-10-31T22:12:00;17.00;99.90
26081;DHT22;13991;51.174;4.438;2022-10-31T22:14:31;17.00;99.90
26081;DHT22;13991;51.174;4.438;2022-10-31T22:16:56;17.00;99.90
26081;DHT22;13991;51.174;4.438;2022-10-31T22:19:22;17.00;99.90
26081;DHT22;13991;51.174;4.438;2022-10-31T22:21:48;17.10;99.90
26081;DHT22;13991;51.174;4.438;2022-10-31T22:24:15;17.10;99.90
26081;DHT22;13991;51.174;4.438;2022-10-31T22:26:40;17.10;99.90
26081;DHT22;13991;51.174;4.438;2022-10-31T22:29:14;17.10;99.90
26081;DHT22;13991;51.174;4.438;2022-10-31T22:31:41;17.00;99.90
26081;DHT22;13991;51.174;4.438;2022-10-31T22:34:08;17.10;99.90
26081;DHT22;13991;51.174;4.438;2022-10-31T22:36:34;17.10;99.90
26081;DHT22;13991;51.174;4.438;2022-10-31T22:39:00;17.10;99.90
26081;DHT22;13991;51.174;4.438;2022-10-31T22:41:31;17.20;99.90
26081;DHT22;13991;51.174;4.438;2022-10-31T22:43:58;17.20;99.90
26081;DHT22;13991;51.174;4.438;2022-10-31T22:46:26;17.20;99.90
26081;DHT22;13991;51.174;4.438;2022-10-31T22:49:01;17.30;99.90
26081;DHT22;13991;51.174;4.438;2022-10-31T22:51:29;17.30;99.90
26081;DHT22;13991;51.174;4.438;2022-10-31T22:53:56;17.40;99.90
26081;DHT22;13991;51.174;4.438;2022-10-31T22:56:24;17.40;99.90
26081;DHT22;13991;51.174;4.438;2022-10-31T22:58:51;17.50;99.90
26081;DHT22;13991;51.174;4.438;2022-10-31T23:01:28;17.40;99.90
26081;DHT22;13991;51.174;4.438;2022-10-31T23:03:54;17.40;99.90
26081;DHT22;13991;51.174;4.438;2022-10-31T23:06:22;17.50;99.90
26081;DHT22;13991;51.174;4.438;2022-10-31T23:08:48;17.50;99.90
26081;DHT22;13991;51.174;4.438;2022-10-31T23:13:46;17.50;99.90
26081;DHT22;13991;51.174;4.438;2022-10-31T23:16:31;17.50;99.90
26081;DHT22;13991;51.174;4.438;2022-10-31T23:18:57;17.50;99.90
26081;DHT22;13991;51.174;4.438;2022-10-31T23:21:24;17.50;99.90
26081;DHT22;13991;51.174;4.438;2022-10-31T23:24:11;17.50;99.90
26081;DHT22;13991;51.174;4.438;2022-10-31T23:26:38;17.50;99.90
26081;DHT22;13991;51.174;4.438;2022-10-31T23:29:22;17.60;99.90
26081;DHT22;13991;51.174;4.438;2022-10-31T23:31:48;17.70;99.90
26081;DHT22;13991;51.174;4.438;2022-10-31T23:34:14;17.50;99.90
26081;DHT22;13991;51.174;4.438;2022-10-31T23:36:40;17.40;99.90
26081;DHT22;13991;51.174;4.438;2022-10-31T23:39:05;17.50;99.90
26081;DHT22;13991;51.174;4.438;2022-10-31T23:41:31;17.40;99.90
26081;DHT22;13991;51.174;4.438;2022-10-31T23:43:57;17.50;99.90
26081;DHT22;13991;51.174;4.438;2022-10-31T23:46:23;17.60;99.90
26081;DHT22;13991;51.174;4.438;2022-10-31T23:48:48;17.60;99.90
26081;DHT22;13991;51.174;4.438;2022-10-31T23:51:15;17.70;99.90
26081;DHT22;13991;51.174;4.438;2022-10-31T23:53:43;17.60;99.90
26081;DHT22;13991;51.174;4.438;2022-10-31T23:56:09;17.70;99.90
26081;DHT22;13991;51.174;4.438;2022-10-31T23:58:35;17.70;99.90
